sensor_id;sensor_type;location;lat;lon;timestamp;temperature;humidity
16781;DHT22;8507;50.056;8.248;2023-08-17T00:02:13;20.50;99.90
16781;DHT22;8507;50.056;8.248;2023-08-17T00:04:39;20.50;99.90
16781;DHT22;8507;50.056;8.248;2023-08-17T00:07:05;20.60;99.90
16781;DHT22;8507;50.056;8.248;2023-08-17T00:09:31;20.60;99.90
16781;DHT22;8507;50.056;8.248;2023-08-17T00:11:57;20.60;99.90
16781;DHT22;8507;50.056;8.248;2023-08-17T00:14:23;20.60;99.90
16781;DHT22;8507;50.056;8.248;2023-08-17T00:16:51;20.60;99.90
16781;DHT22;8507;50.056;8.248;2023-08-17T00:19:17;20.60;99.90
16781;DHT22;8507;50.056;8.248;2023-08-17T00:21:44;20.50;99.90
16781;DHT22;8507;50.056;8.248;2023-08-17T00:24:09;20.60;99.90
16781;DHT22;8507;50.056;8.248;2023-08-17T00:26:35;20.50;99.90
16781;DHT22;8507;50.056;8.248;2023-08-17T00:29:01;20.50;99.90
16781;DHT22;8507;50.056;8.248;2023-08-17T00:31:26;20.60;99.90
16781;DHT22;8507;50.056;8.248;2023-08-17T00:33:52;20.70;99.90
16781;DHT22;8507;50.056;8.248;2023-08-17T00:36:17;20.70;99.90
16781;DHT22;8507;50.056;8.248;2023-08-17T00:38:43;20.70;99.90
16781;DHT22;8507;50.056;8.248;2023-08-17T00:41:08;20.70;99.90
16781;DHT22;8507;50.056;8.248;2023-08-17T00:43:34;20.60;99.90
16781;DHT22;8507;50.056;8.248;2023-08-17T00:45:59;20.60;99.90
16781;DHT22;8507;50.056;8.248;2023-08-17T00:48:26;20.50;99.90
16781;DHT22;8507;50.056;8.248;2023-08-17T00:50:52;20.50;99.90
16781;DHT22;8507;50.056;8.248;2023-08-17T00:53:19;20.30;99.90
16781;DHT22;8507;50.056;8.248;2023-08-17T00:55:45;20.30;99.90
16781;DHT22;8507;50.056;8.248;2023-08-17T00:58:11;20.30;99.90
16781;DHT22;8507;50.056;8.248;2023-08-17T01:00:37;20.20;99.90
16781;DHT22;8507;50.056;8.248;2023-08-17T01:03:03;20.00;99.90
16781;DHT22;8507;50.056;8.248;2023-08-17T01:05:29;20.10;99.90
16781;DHT22;8507;50.056;8.248;2023-08-17T01:07:56;19.80;99.90
16781;DHT22;8507;50.056;8.248;2023-08-17T01:10:22;19.60;99.90
16781;DHT22;8507;50.056;8.248;2023-08-17T01:15:20;19.70;99.90
16781;DHT22;8507;50.056;8.248;2023-08-17T01:17:58;19.90;99.90
16781;DHT22;8507;50.056;8.248;2023-08-17T01:20:26;20.00;99.90
16781;DHT22;8507;50.056;8.248;2023-08-17T01:22:55;20.00;99.90
16781;DHT22;8507;50.056;8.248;2023-08-17T01:25:24;19.90;99.90
16781;DHT22;8507;50.056;8.248;2023-08-17T01:27:49;19.70;99.90
16781;DHT22;8507;50.056;8.248;2023-08-17T01:30:16;19.50;99.90
16781;DHT22;8507;50.056;8.248;2023-08-17T01:32:51;19.40;99.90
16781;DHT22;8507;50.056;8.248;2023-08-17T01:35:31;19.30;99.90
16781;DHT22;8507;50.056;8.248;2023-08-17T01:38:02;19.30;99.90
16781;DHT22;8507;50.056;8.248;2023-08-17T01:40:31;19.30;99.90
16781;DHT22;8507;50.056;8.248;2023-08-17T01:42:57;19.30;99.90
16781;DHT22;8507;50.056;8.248;2023-08-17T01:45:24;19.20;99.90
16781;DHT22;8507;50.056;8.248;2023-08-17T01:47:50;19.20;99.90
16781;DHT22;8507;50.056;8.248;2023-08-17T01:50:15;19.20;99.90
16781;DHT22;8507;50.056;8.248;2023-08-17T01:52:41;19.40;99.90
16781;DHT22;8507;50.056;8.248;2023-08-17T01:55:07;19.50;99.90
16781;DHT22;8507;50.056;8.248;2023-08-17T01:57:33;19.50;99.90
16781;DHT22;8507;50.056;8.248;2023-08-17T02:00:00;19.30;99.90
16781;DHT22;8507;50.056;8.248;2023-08-17T02:02:25;19.20;99.90
16781;DHT22;8507;50.056;8.248;2023-08-17T02:04:51;19.20;99.90
16781;DHT22;8507;50.056;8.248;2023-08-17T02:07:17;19.40;99.90
16781;DHT22;8507;50.056;8.248;2023-08-17T02:09:42;19.40;99.90
16781;DHT22;8507;50.056;8.248;2023-08-17T02:12:08;19.50;99.90
16781;DHT22;8507;50.056;8.248;2023-08-17T02:14:33;19.40;99.90
16781;DHT22;8507;50.056;8.248;2023-08-17T02:16:59;19.40;99.90
16781;DHT22;8507;50.056;8.248;2023-08-17T02:19:25;19.20;99.90
16781;DHT22;8507;50.056;8.248;2023-08-17T02:21:51;19.10;99.90
16781;DHT22;8507;50.056;8.248;2023-08-17T02:24:16;19.10;99.90
16781;DHT22;8507;50.056;8.248;2023-08-17T02:26:42;19.20;99.90
16781;DHT22;8507;50.056;8.248;2023-08-17T02:29:07;19.20;99.90
16781;DHT22;8507;50.056;8.248;2023-08-17T02:31:33;19.20;99.90
16781;DHT22;8507;50.056;8.248;2023-08-17T02:33:58;19.20;99.90
16781;DHT22;8507;50.056;8.248;2023-08-17T02:36:29;19.20;99.90
16781;DHT22;8507;50.056;8.248;2023-08-17T02:38:55;19.20;99.90
16781;DHT22;8507;50.056;8.248;2023-08-17T02:41:20;19.20;99.90
16781;DHT22;8507;50.056;8.248;2023-08-17T02:43:46;19.20;99.90
16781;DHT22;8507;50.056;8.248;2023-08-17T02:46:11;19.20;99.90
16781;DHT22;8507;50.056;8.248;2023-08-17T02:48:37;19.20;99.90
16781;DHT22;8507;50.056;8.248;2023-08-17T02:51:02;19.10;99.90
16781;DHT22;8507;50.056;8.248;2023-08-17T02:53:28;19.10;99.90
16781;DHT22;8507;50.056;8.248;2023-08-17T02:55:53;19.00;99.90
16781;DHT22;8507;50.056;8.248;2023-08-17T02:58:19;18.90;99.90
16781;DHT22;8507;50.056;8.248;2023-08-17T03:00:45;18.90;99.90
16781;DHT22;8507;50.056;8.248;2023-08-17T03:03:10;18.90;99.90
16781;DHT22;8507;50.056;8.248;2023-08-17T03:05:36;18.90;99.90
16781;DHT22;8507;50.056;8.248;2023-08-17T03:08:01;18.90;99.90
16781;DHT22;8507;50.056;8.248;2023-08-17T03:10:27;18.80;99.90
16781;DHT22;8507;50.056;8.248;2023-08-17T03:12:52;18.90;99.90
16781;DHT22;8507;50.056;8.248;2023-08-17T03:15:18;18.90;99.90
16781;DHT22;8507;50.056;8.248;2023-08-17T03:17:43;18.80;99.90
16781;DHT22;8507;50.056;8.248;2023-08-17T03:20:09;18.80;99.90
16781;DHT22;8507;50.056;8.248;2023-08-17T03:22:35;18.80;99.90
16781;DHT22;8507;50.056;8.248;2023-08-17T03:25:01;18.80;99.90
16781;DHT22;8507;50.056;8.248;2023-08-17T03:27:28;18.80;99.90
16781;DHT22;8507;50.056;8.248;2023-08-17T03:29:54;18.80;99.90
16781;DHT22;8507;50.056;8.248;2023-08-17T03:32:19;18.80;99.90
16781;DHT22;8507;50.056;8.248;2023-08-17T03:34:45;18.80;99.90
16781;DHT22;8507;50.056;8.248;2023-08-17T03:37:11;18.70;99.90
16781;DHT22;8507;50.056;8.248;2023-08-17T03:39:36;18.70;99.90
16781;DHT22;8507;50.056;8.248;2023-08-17T03:42:02;18.60;99.90
16781;DHT22;8507;50.056;8.248;2023-08-17T03:44:27;18.60;99.90
16781;DHT22;8507;50.056;8.248;2023-08-17T03:46:53;18.60;99.90
16781;DHT22;8507;50.056;8.248;2023-08-17T03:49:19;18.60;99.90
16781;DHT22;8507;50.056;8.248;2023-08-17T03:51:45;18.40;99.90
16781;DHT22;8507;50.056;8.248;2023-08-17T03:54:12;18.40;99.90
16781;DHT22;8507;50.056;8.248;2023-08-17T03:56:37;18.40;99.90
16781;DHT22;8507;50.056;8.248;2023-08-17T03:59:03;18.40;99.90
16781;DHT22;8507;50.056;8.248;2023-08-17T04:01:29;18.40;99.90
16781;DHT22;8507;50.056;8.248;2023-08-17T04:03:54;18.40;99.90
16781;DHT22;8507;50.056;8.248;2023-08-17T04:06:20;18.40;99.90
16781;DHT22;8507;50.056;8.248;2023-08-17T04:08:46;18.40;99.90
16781;DHT22;8507;50.056;8.248;2023-08-17T04:11:11;18.40;99.90
16781;DHT22;8507;50.056;8.248;2023-08-17T04:13:37;18.30;99.90
16781;DHT22;8507;50.056;8.248;2023-08-17T04:16:02;18.40;99.90
16781;DHT22;8507;50.056;8.248;2023-08-17T04:18:28;18.30;99.90
16781;DHT22;8507;50.056;8.248;2023-08-17T04:20:53;18.40;99.90
16781;DHT22;8507;50.056;8.248;2023-08-17T04:23:19;18.40;99.90
16781;DHT22;8507;50.056;8.248;2023-08-17T04:25:47;18.30;99.90
16781;DHT22;8507;50.056;8.248;2023-08-17T04:28:13;18.30;99.90
16781;DHT22;8507;50.056;8.248;2023-08-17T04:30:39;18.10;99.90
16781;DHT22;8507;50.056;8.248;2023-08-17T04:33:05;17.90;99.90
16781;DHT22;8507;50.056;8.248;2023-08-17T04:35:30;17.90;99.90
16781;DHT22;8507;50.056;8.248;2023-08-17T04:37:56;18.00;99.90
16781;DHT22;8507;50.056;8.248;2023-08-17T04:40:21;18.10;99.90
16781;DHT22;8507;50.056;8.248;2023-08-17T04:42:47;18.10;99.90
16781;DHT22;8507;50.056;8.248;2023-08-17T04:45:12;18.20;99.90
16781;DHT22;8507;50.056;8.248;2023-08-17T04:47:39;18.20;99.90
16781;DHT22;8507;50.056;8.248;2023-08-17T04:50:05;18.10;99.90
16781;DHT22;8507;50.056;8.248;2023-08-17T04:52:31;17.90;99.90
16781;DHT22;8507;50.056;8.248;2023-08-17T04:54:57;17.80;99.90
16781;DHT22;8507;50.056;8.248;2023-08-17T04:57:22;17.90;99.90
16781;DHT22;8507;50.056;8.248;2023-08-17T04:59:48;18.00;99.90
16781;DHT22;8507;50.056;8.248;2023-08-17T05:02:13;17.90;99.90
16781;DHT22;8507;50.056;8.248;2023-08-17T05:04:39;18.00;99.90
16781;DHT22;8507;50.056;8.248;2023-08-17T05:07:05;18.00;99.90
16781;DHT22;8507;50.056;8.248;2023-08-17T05:09:31;17.90;99.90
16781;DHT22;8507;50.056;8.248;2023-08-17T05:11:56;17.90;99.90
16781;DHT22;8507;50.056;8.248;2023-08-17T05:14:23;17.90;99.90
16781;DHT22;8507;50.056;8.248;2023-08-17T05:16:48;18.00;99.90
16781;DHT22;8507;50.056;8.248;2023-08-17T05:19:14;18.10;99.90
16781;DHT22;8507;50.056;8.248;2023-08-17T05:21:39;18.10;99.90
16781;DHT22;8507;50.056;8.248;2023-08-17T05:24:05;18.20;99.90
16781;DHT22;8507;50.056;8.248;2023-08-17T05:26:31;18.20;99.90
16781;DHT22;8507;50.056;8.248;2023-08-17T05:28:56;18.20;99.90
16781;DHT22;8507;50.056;8.248;2023-08-17T05:31:22;18.30;99.90
16781;DHT22;8507;50.056;8.248;2023-08-17T05:33:47;18.30;99.90
16781;DHT22;8507;50.056;8.248;2023-08-17T05:36:13;18.40;99.90
16781;DHT22;8507;50.056;8.248;2023-08-17T05:38:40;18.60;99.90
16781;DHT22;8507;50.056;8.248;2023-08-17T05:41:06;18.80;99.90
16781;DHT22;8507;50.056;8.248;2023-08-17T05:43:32;18.70;99.90
16781;DHT22;8507;50.056;8.248;2023-08-17T05:45:58;18.70;99.90
16781;DHT22;8507;50.056;8.248;2023-08-17T05:48:29;18.70;99.90
16781;DHT22;8507;50.056;8.248;2023-08-17T05:50:55;18.70;99.90
16781;DHT22;8507;50.056;8.248;2023-08-17T05:53:21;18.90;99.90
16781;DHT22;8507;50.056;8.248;2023-08-17T05:55:47;18.90;99.90
16781;DHT22;8507;50.056;8.248;2023-08-17T05:58:12;19.00;99.90
16781;DHT22;8507;50.056;8.248;2023-08-17T06:00:38;19.10;99.90
16781;DHT22;8507;50.056;8.248;2023-08-17T06:03:04;19.30;99.90
16781;DHT22;8507;50.056;8.248;2023-08-17T06:05:30;19.20;99.90
16781;DHT22;8507;50.056;8.248;2023-08-17T06:07:59;19.20;99.90
16781;DHT22;8507;50.056;8.248;2023-08-17T06:10:25;19.30;99.90
16781;DHT22;8507;50.056;8.248;2023-08-17T06:12:55;19.40;99.90
16781;DHT22;8507;50.056;8.248;2023-08-17T06:15:21;19.40;99.90
16781;DHT22;8507;50.056;8.248;2023-08-17T06:17:47;19.40;99.90
16781;DHT22;8507;50.056;8.248;2023-08-17T06:20:15;19.60;99.90
16781;DHT22;8507;50.056;8.248;2023-08-17T06:22:41;19.90;99.90
16781;DHT22;8507;50.056;8.248;2023-08-17T06:25:07;20.10;99.90
16781;DHT22;8507;50.056;8.248;2023-08-17T06:27:34;20.40;99.90
16781;DHT22;8507;50.056;8.248;2023-08-17T06:30:00;20.70;99.90
16781;DHT22;8507;50.056;8.248;2023-08-17T06:32:27;20.80;99.90
16781;DHT22;8507;50.056;8.248;2023-08-17T06:34:52;20.40;99.90
16781;DHT22;8507;50.056;8.248;2023-08-17T06:37:19;20.60;99.90
16781;DHT22;8507;50.056;8.248;2023-08-17T06:39:45;20.90;99.90
16781;DHT22;8507;50.056;8.248;2023-08-17T06:42:11;21.20;99.90
16781;DHT22;8507;50.056;8.248;2023-08-17T06:44:37;21.30;99.90
16781;DHT22;8507;50.056;8.248;2023-08-17T06:47:03;21.50;99.90
16781;DHT22;8507;50.056;8.248;2023-08-17T06:49:28;21.70;99.90
16781;DHT22;8507;50.056;8.248;2023-08-17T06:51:54;21.80;99.90
16781;DHT22;8507;50.056;8.248;2023-08-17T06:54:21;22.00;99.90
16781;DHT22;8507;50.056;8.248;2023-08-17T06:56:46;22.20;99.90
16781;DHT22;8507;50.056;8.248;2023-08-17T06:59:12;22.40;99.90
16781;DHT22;8507;50.056;8.248;2023-08-17T07:01:37;22.60;99.90
16781;DHT22;8507;50.056;8.248;2023-08-17T07:04:03;22.70;99.90
16781;DHT22;8507;50.056;8.248;2023-08-17T07:06:29;22.80;99.90
16781;DHT22;8507;50.056;8.248;2023-08-17T07:08:54;22.10;99.90
16781;DHT22;8507;50.056;8.248;2023-08-17T07:11:20;22.30;99.90
16781;DHT22;8507;50.056;8.248;2023-08-17T07:13:46;22.20;99.90
16781;DHT22;8507;50.056;8.248;2023-08-17T07:16:12;22.10;99.90
16781;DHT22;8507;50.056;8.248;2023-08-17T07:18:38;21.50;99.90
16781;DHT22;8507;50.056;8.248;2023-08-17T07:21:03;21.70;99.90
16781;DHT22;8507;50.056;8.248;2023-08-17T07:23:29;22.30;99.90
16781;DHT22;8507;50.056;8.248;2023-08-17T07:25:54;22.60;99.90
16781;DHT22;8507;50.056;8.248;2023-08-17T07:28:20;22.40;99.90
16781;DHT22;8507;50.056;8.248;2023-08-17T07:30:45;22.70;99.90
16781;DHT22;8507;50.056;8.248;2023-08-17T07:33:11;23.10;99.90
16781;DHT22;8507;50.056;8.248;2023-08-17T07:35:36;23.00;99.90
16781;DHT22;8507;50.056;8.248;2023-08-17T07:38:02;23.00;99.90
16781;DHT22;8507;50.056;8.248;2023-08-17T07:40:28;23.50;99.90
16781;DHT22;8507;50.056;8.248;2023-08-17T07:42:53;23.40;99.90
16781;DHT22;8507;50.056;8.248;2023-08-17T07:45:19;23.90;99.90
16781;DHT22;8507;50.056;8.248;2023-08-17T07:47:44;23.90;99.90
16781;DHT22;8507;50.056;8.248;2023-08-17T07:50:10;23.30;99.90
16781;DHT22;8507;50.056;8.248;2023-08-17T07:52:36;23.10;99.90
16781;DHT22;8507;50.056;8.248;2023-08-17T07:55:01;23.80;99.90
16781;DHT22;8507;50.056;8.248;2023-08-17T07:57:28;24.10;99.90
16781;DHT22;8507;50.056;8.248;2023-08-17T07:59:54;24.20;99.90
16781;DHT22;8507;50.056;8.248;2023-08-17T08:02:20;24.80;99.90
16781;DHT22;8507;50.056;8.248;2023-08-17T08:04:45;24.80;99.90
16781;DHT22;8507;50.056;8.248;2023-08-17T08:07:11;24.80;99.90
16781;DHT22;8507;50.056;8.248;2023-08-17T08:09:36;24.50;99.90
16781;DHT22;8507;50.056;8.248;2023-08-17T08:12:02;25.00;99.90
16781;DHT22;8507;50.056;8.248;2023-08-17T08:14:28;24.80;99.90
16781;DHT22;8507;50.056;8.248;2023-08-17T08:16:54;24.20;99.90
16781;DHT22;8507;50.056;8.248;2023-08-17T08:19:20;24.70;99.90
16781;DHT22;8507;50.056;8.248;2023-08-17T08:21:45;25.30;99.90
16781;DHT22;8507;50.056;8.248;2023-08-17T08:24:11;25.70;99.90
16781;DHT22;8507;50.056;8.248;2023-08-17T08:26:36;25.90;99.90
16781;DHT22;8507;50.056;8.248;2023-08-17T08:29:02;26.30;99.90
16781;DHT22;8507;50.056;8.248;2023-08-17T08:31:27;24.90;99.90
16781;DHT22;8507;50.056;8.248;2023-08-17T08:33:53;24.70;99.90
16781;DHT22;8507;50.056;8.248;2023-08-17T08:36:19;25.30;99.90
16781;DHT22;8507;50.056;8.248;2023-08-17T08:38:44;25.60;99.90
16781;DHT22;8507;50.056;8.248;2023-08-17T08:41:11;25.80;99.90
16781;DHT22;8507;50.056;8.248;2023-08-17T08:43:38;26.30;99.90
16781;DHT22;8507;50.056;8.248;2023-08-17T08:46:04;26.60;99.90
16781;DHT22;8507;50.056;8.248;2023-08-17T08:48:33;26.40;99.90
16781;DHT22;8507;50.056;8.248;2023-08-17T08:51:00;26.60;99.90
16781;DHT22;8507;50.056;8.248;2023-08-17T08:53:38;27.00;99.90
16781;DHT22;8507;50.056;8.248;2023-08-17T08:56:04;26.60;99.90
16781;DHT22;8507;50.056;8.248;2023-08-17T08:58:33;25.80;99.90
16781;DHT22;8507;50.056;8.248;2023-08-17T09:01:00;26.40;99.90
16781;DHT22;8507;50.056;8.248;2023-08-17T09:03:26;25.90;99.90
16781;DHT22;8507;50.056;8.248;2023-08-17T09:05:52;25.40;99.90
16781;DHT22;8507;50.056;8.248;2023-08-17T09:08:22;25.70;99.90
16781;DHT22;8507;50.056;8.248;2023-08-17T09:10:49;25.40;99.90
16781;DHT22;8507;50.056;8.248;2023-08-17T09:13:15;25.00;99.90
16781;DHT22;8507;50.056;8.248;2023-08-17T09:15:41;24.90;99.90
16781;DHT22;8507;50.056;8.248;2023-08-17T09:18:06;24.80;99.90
16781;DHT22;8507;50.056;8.248;2023-08-17T09:20:39;25.60;99.90
16781;DHT22;8507;50.056;8.248;2023-08-17T09:23:10;26.20;99.90
16781;DHT22;8507;50.056;8.248;2023-08-17T09:25:39;26.10;99.90
16781;DHT22;8507;50.056;8.248;2023-08-17T09:28:15;25.20;99.90
16781;DHT22;8507;50.056;8.248;2023-08-17T09:30:54;25.10;99.90
16781;DHT22;8507;50.056;8.248;2023-08-17T09:33:25;25.50;99.90
16781;DHT22;8507;50.056;8.248;2023-08-17T09:35:53;25.80;99.90
16781;DHT22;8507;50.056;8.248;2023-08-17T09:38:19;25.10;99.90
16781;DHT22;8507;50.056;8.248;2023-08-17T09:40:46;24.90;99.90
16781;DHT22;8507;50.056;8.248;2023-08-17T09:43:12;25.20;99.90
16781;DHT22;8507;50.056;8.248;2023-08-17T09:45:38;24.80;99.90
16781;DHT22;8507;50.056;8.248;2023-08-17T09:48:06;25.00;99.90
16781;DHT22;8507;50.056;8.248;2023-08-17T09:50:31;25.80;99.90
16781;DHT22;8507;50.056;8.248;2023-08-17T09:52:57;26.10;99.90
16781;DHT22;8507;50.056;8.248;2023-08-17T09:55:23;25.80;99.90
16781;DHT22;8507;50.056;8.248;2023-08-17T09:57:50;26.20;99.90
16781;DHT22;8507;50.056;8.248;2023-08-17T10:00:16;26.30;99.90
16781;DHT22;8507;50.056;8.248;2023-08-17T10:02:44;26.50;99.90
16781;DHT22;8507;50.056;8.248;2023-08-17T10:05:14;26.70;99.90
16781;DHT22;8507;50.056;8.248;2023-08-17T10:07:47;26.50;99.90
16781;DHT22;8507;50.056;8.248;2023-08-17T10:10:16;26.90;99.90
16781;DHT22;8507;50.056;8.248;2023-08-17T10:13:11;26.90;99.90
16781;DHT22;8507;50.056;8.248;2023-08-17T10:15:51;27.30;99.90
16781;DHT22;8507;50.056;8.248;2023-08-17T10:18:42;27.00;99.90
16781;DHT22;8507;50.056;8.248;2023-08-17T10:21:20;26.60;99.90
16781;DHT22;8507;50.056;8.248;2023-08-17T10:23:47;27.20;99.90
16781;DHT22;8507;50.056;8.248;2023-08-17T10:26:14;27.50;99.90
16781;DHT22;8507;50.056;8.248;2023-08-17T10:28:40;26.70;99.90
16781;DHT22;8507;50.056;8.248;2023-08-17T10:31:07;27.30;99.90
16781;DHT22;8507;50.056;8.248;2023-08-17T10:33:32;27.60;99.90
16781;DHT22;8507;50.056;8.248;2023-08-17T10:36:00;27.80;99.90
16781;DHT22;8507;50.056;8.248;2023-08-17T10:38:26;27.20;99.90
16781;DHT22;8507;50.056;8.248;2023-08-17T10:41:12;27.10;99.90
16781;DHT22;8507;50.056;8.248;2023-08-17T10:43:57;27.00;99.90
16781;DHT22;8507;50.056;8.248;2023-08-17T10:46:33;27.20;99.90
16781;DHT22;8507;50.056;8.248;2023-08-17T10:49:03;27.60;99.90
16781;DHT22;8507;50.056;8.248;2023-08-17T10:51:29;28.00;99.90
16781;DHT22;8507;50.056;8.248;2023-08-17T10:53:58;27.90;99.90
16781;DHT22;8507;50.056;8.248;2023-08-17T10:56:27;27.70;99.90
16781;DHT22;8507;50.056;8.248;2023-08-17T10:58:53;27.80;99.90
16781;DHT22;8507;50.056;8.248;2023-08-17T11:01:36;27.50;99.90
16781;DHT22;8507;50.056;8.248;2023-08-17T11:04:17;27.00;99.90
16781;DHT22;8507;50.056;8.248;2023-08-17T11:06:45;27.40;99.90
16781;DHT22;8507;50.056;8.248;2023-08-17T11:09:11;27.80;99.90
16781;DHT22;8507;50.056;8.248;2023-08-17T11:11:37;27.60;99.90
16781;DHT22;8507;50.056;8.248;2023-08-17T11:14:03;28.20;99.90
16781;DHT22;8507;50.056;8.248;2023-08-17T11:16:29;28.80;99.90
16781;DHT22;8507;50.056;8.248;2023-08-17T11:18:54;29.20;99.90
16781;DHT22;8507;50.056;8.248;2023-08-17T11:21:23;29.60;99.90
16781;DHT22;8507;50.056;8.248;2023-08-17T11:23:49;29.80;99.90
16781;DHT22;8507;50.056;8.248;2023-08-17T11:26:18;30.00;99.90
16781;DHT22;8507;50.056;8.248;2023-08-17T11:28:44;30.00;99.90
16781;DHT22;8507;50.056;8.248;2023-08-17T11:31:11;29.20;99.90
16781;DHT22;8507;50.056;8.248;2023-08-17T11:33:38;29.20;99.90
16781;DHT22;8507;50.056;8.248;2023-08-17T11:36:06;29.50;99.90
16781;DHT22;8507;50.056;8.248;2023-08-17T11:38:36;29.00;99.90
16781;DHT22;8507;50.056;8.248;2023-08-17T11:41:03;29.10;99.90
16781;DHT22;8507;50.056;8.248;2023-08-17T11:43:30;28.10;99.90
16781;DHT22;8507;50.056;8.248;2023-08-17T11:45:57;27.90;99.90
16781;DHT22;8507;50.056;8.248;2023-08-17T11:48:26;28.20;99.90
16781;DHT22;8507;50.056;8.248;2023-08-17T11:50:52;28.70;99.90
16781;DHT22;8507;50.056;8.248;2023-08-17T11:53:18;29.40;99.90
16781;DHT22;8507;50.056;8.248;2023-08-17T11:55:44;29.30;99.90
16781;DHT22;8507;50.056;8.248;2023-08-17T11:58:09;29.40;99.90
16781;DHT22;8507;50.056;8.248;2023-08-17T12:00:37;29.80;99.90
16781;DHT22;8507;50.056;8.248;2023-08-17T12:03:05;29.10;99.90
16781;DHT22;8507;50.056;8.248;2023-08-17T12:05:31;29.60;99.90
16781;DHT22;8507;50.056;8.248;2023-08-17T12:07:59;29.90;99.90
16781;DHT22;8507;50.056;8.248;2023-08-17T12:10:37;29.60;99.90
16781;DHT22;8507;50.056;8.248;2023-08-17T12:13:02;29.20;99.90
16781;DHT22;8507;50.056;8.248;2023-08-17T12:15:32;29.00;99.90
16781;DHT22;8507;50.056;8.248;2023-08-17T12:18:02;29.20;99.90
16781;DHT22;8507;50.056;8.248;2023-08-17T12:20:28;29.90;99.90
16781;DHT22;8507;50.056;8.248;2023-08-17T12:22:57;30.50;99.90
16781;DHT22;8507;50.056;8.248;2023-08-17T12:25:24;30.90;99.90
16781;DHT22;8507;50.056;8.248;2023-08-17T12:27:50;31.30;99.90
16781;DHT22;8507;50.056;8.248;2023-08-17T12:30:29;31.50;99.90
16781;DHT22;8507;50.056;8.248;2023-08-17T12:32:56;31.50;99.90
16781;DHT22;8507;50.056;8.248;2023-08-17T12:35:22;30.90;99.90
16781;DHT22;8507;50.056;8.248;2023-08-17T12:37:50;30.60;99.90
16781;DHT22;8507;50.056;8.248;2023-08-17T12:40:16;30.60;99.90
16781;DHT22;8507;50.056;8.248;2023-08-17T12:42:42;30.90;99.90
16781;DHT22;8507;50.056;8.248;2023-08-17T12:45:07;30.80;99.90
16781;DHT22;8507;50.056;8.248;2023-08-17T12:47:33;30.80;99.90
16781;DHT22;8507;50.056;8.248;2023-08-17T12:49:58;30.70;99.90
16781;DHT22;8507;50.056;8.248;2023-08-17T12:52:25;30.90;99.90
16781;DHT22;8507;50.056;8.248;2023-08-17T12:54:53;30.90;99.90
16781;DHT22;8507;50.056;8.248;2023-08-17T12:57:18;30.50;99.90
16781;DHT22;8507;50.056;8.248;2023-08-17T12:59:44;29.80;99.90
16781;DHT22;8507;50.056;8.248;2023-08-17T13:02:09;29.80;99.90
16781;DHT22;8507;50.056;8.248;2023-08-17T13:04:35;29.70;99.90
16781;DHT22;8507;50.056;8.248;2023-08-17T13:07:01;29.60;99.90
16781;DHT22;8507;50.056;8.248;2023-08-17T13:09:27;29.40;99.90
16781;DHT22;8507;50.056;8.248;2023-08-17T13:11:52;28.80;99.90
16781;DHT22;8507;50.056;8.248;2023-08-17T13:14:18;28.10;99.90
16781;DHT22;8507;50.056;8.248;2023-08-17T13:16:44;27.70;99.90
16781;DHT22;8507;50.056;8.248;2023-08-17T13:19:09;27.50;99.90
16781;DHT22;8507;50.056;8.248;2023-08-17T13:21:35;27.40;99.90
16781;DHT22;8507;50.056;8.248;2023-08-17T13:24:00;27.80;99.90
16781;DHT22;8507;50.056;8.248;2023-08-17T13:26:28;28.20;99.90
16781;DHT22;8507;50.056;8.248;2023-08-17T13:28:53;28.20;99.90
16781;DHT22;8507;50.056;8.248;2023-08-17T13:31:19;28.30;99.90
16781;DHT22;8507;50.056;8.248;2023-08-17T13:33:44;28.50;99.90
16781;DHT22;8507;50.056;8.248;2023-08-17T13:36:10;28.80;99.90
16781;DHT22;8507;50.056;8.248;2023-08-17T13:38:36;28.90;99.90
16781;DHT22;8507;50.056;8.248;2023-08-17T13:41:02;28.90;99.90
16781;DHT22;8507;50.056;8.248;2023-08-17T13:43:28;29.60;99.90
16781;DHT22;8507;50.056;8.248;2023-08-17T13:45:53;30.10;99.90
16781;DHT22;8507;50.056;8.248;2023-08-17T13:48:19;30.60;99.90
16781;DHT22;8507;50.056;8.248;2023-08-17T13:50:44;30.90;99.90
16781;DHT22;8507;50.056;8.248;2023-08-17T13:53:10;31.10;99.90
16781;DHT22;8507;50.056;8.248;2023-08-17T13:55:36;31.20;99.90
16781;DHT22;8507;50.056;8.248;2023-08-17T13:58:01;31.10;99.90
16781;DHT22;8507;50.056;8.248;2023-08-17T14:00:27;29.90;99.90
16781;DHT22;8507;50.056;8.248;2023-08-17T14:02:53;29.50;99.90
16781;DHT22;8507;50.056;8.248;2023-08-17T14:05:19;29.80;99.90
16781;DHT22;8507;50.056;8.248;2023-08-17T14:07:45;30.20;99.90
16781;DHT22;8507;50.056;8.248;2023-08-17T14:10:10;30.00;99.90
16781;DHT22;8507;50.056;8.248;2023-08-17T14:12:36;29.50;99.90
16781;DHT22;8507;50.056;8.248;2023-08-17T14:15:02;29.70;99.90
16781;DHT22;8507;50.056;8.248;2023-08-17T14:17:27;30.00;99.90
16781;DHT22;8507;50.056;8.248;2023-08-17T14:19:53;29.70;99.90
16781;DHT22;8507;50.056;8.248;2023-08-17T14:22:20;30.10;99.90
16781;DHT22;8507;50.056;8.248;2023-08-17T14:24:45;30.20;99.90
16781;DHT22;8507;50.056;8.248;2023-08-17T14:27:11;30.40;99.90
16781;DHT22;8507;50.056;8.248;2023-08-17T14:29:36;30.40;99.90
16781;DHT22;8507;50.056;8.248;2023-08-17T14:32:02;30.10;99.90
16781;DHT22;8507;50.056;8.248;2023-08-17T14:34:28;29.80;99.90
16781;DHT22;8507;50.056;8.248;2023-08-17T14:36:54;29.70;99.90
16781;DHT22;8507;50.056;8.248;2023-08-17T14:39:19;28.90;99.90
16781;DHT22;8507;50.056;8.248;2023-08-17T14:41:45;28.90;99.90
16781;DHT22;8507;50.056;8.248;2023-08-17T14:44:10;28.80;99.90
16781;DHT22;8507;50.056;8.248;2023-08-17T14:46:36;28.30;99.90
16781;DHT22;8507;50.056;8.248;2023-08-17T14:49:04;27.70;99.90
16781;DHT22;8507;50.056;8.248;2023-08-17T14:51:30;27.70;99.90
16781;DHT22;8507;50.056;8.248;2023-08-17T14:53:55;27.90;99.90
16781;DHT22;8507;50.056;8.248;2023-08-17T14:56:21;27.80;99.90
16781;DHT22;8507;50.056;8.248;2023-08-17T14:58:48;27.80;99.90
16781;DHT22;8507;50.056;8.248;2023-08-17T15:01:13;28.30;99.90
16781;DHT22;8507;50.056;8.248;2023-08-17T15:03:39;28.90;99.90
16781;DHT22;8507;50.056;8.248;2023-08-17T15:06:06;29.20;99.90
16781;DHT22;8507;50.056;8.248;2023-08-17T15:08:32;29.30;99.90
16781;DHT22;8507;50.056;8.248;2023-08-17T15:10:58;29.20;99.90
16781;DHT22;8507;50.056;8.248;2023-08-17T15:13:27;29.50;99.90
16781;DHT22;8507;50.056;8.248;2023-08-17T15:15:53;28.90;99.90
16781;DHT22;8507;50.056;8.248;2023-08-17T15:18:18;28.60;99.90
16781;DHT22;8507;50.056;8.248;2023-08-17T15:20:44;28.80;99.90
16781;DHT22;8507;50.056;8.248;2023-08-17T15:23:10;29.20;99.90
16781;DHT22;8507;50.056;8.248;2023-08-17T15:25:35;29.00;99.90
16781;DHT22;8507;50.056;8.248;2023-08-17T15:28:01;28.80;99.90
16781;DHT22;8507;50.056;8.248;2023-08-17T15:30:26;28.80;99.90
16781;DHT22;8507;50.056;8.248;2023-08-17T15:32:52;28.50;99.90
16781;DHT22;8507;50.056;8.248;2023-08-17T15:35:18;27.90;99.90
16781;DHT22;8507;50.056;8.248;2023-08-17T15:37:43;27.90;99.90
16781;DHT22;8507;50.056;8.248;2023-08-17T15:40:09;27.80;99.90
16781;DHT22;8507;50.056;8.248;2023-08-17T15:42:36;28.00;99.90
16781;DHT22;8507;50.056;8.248;2023-08-17T15:45:02;27.80;99.90